EBLG/LGG METAR and TAF weather

Enter ICAO airport designator
Station Type Date Time Source
EBLG METAR 2023/01/29 18:20 UTC NOAA

EBLG 291820Z 20011KT 9999 BKN015 01/M02 Q1024 BECMG BKN014


Station Type Date Time Source
EBLG Decoded METAR 2023/01/29 18:20 UTC NOAA

Bierset, Belgium (EBLG) 50-39N 005-27E 178M
Jan 29, 2023 - 01:20 PM EST / 2023.01.29 1820 UTC
Wind: from the SSW (200 degrees) at 13 MPH (11 KT):0
Visibility: greater than 7 mile(s):0
Sky conditions: mostly cloudy
Temperature: 33 F (1 C)
Windchill: 23 F (-5 C):1
Dew Point: 28 F (-2 C)
Relative Humidity: 80%
Pressure (altimeter): 30.24 in. Hg (1024 hPa)
ob: EBLG 291820Z 20011KT 9999 BKN015 01/M02 Q1024 BECMG BKN014
cycle: 18

Station Type Date Time Source
EBLG TAF 2023/01/29 18:27 UTC NOAA

TAF EBLG 291720Z 2918/3024 22009KT 9999 BKN020
TEMPO 2920/3009 3500 -RADZ BKN010 PROB40
TEMPO 2922/3008 22016G27KT 2000 -DZRA BKN004
BECMG 3008/3010 30012KT

Example: see airport list